KFEP/FEP METAR and TAF weather

Enter ICAO airport designator
Station Type Date Time Source
KFEP METAR 2020/04/05 19:15 UTC NOAA

KFEP 051915Z AUTO 16005KT 10SM CLR 12/M01 A3019 RMK AO2 T01201010


Station Type Date Time Source
KFEP Decoded METAR 2020/04/05 19:15 UTC NOAA

Freeport, Albertus Airport, IL, United States (KFEP) 42-14-47N 089-34-56W
Apr 05, 2020 - 03:15 PM EDT / 2020.04.05 1915 UTC
Wind: from the SSE (160 degrees) at 6 MPH (5 KT):0
Visibility: 10 mile(s):0
Sky conditions: clear
Temperature: 53.6 F (12.0 C)
Dew Point: 30.2 F (-1.0 C)
Relative Humidity: 40%
Pressure (altimeter): 30.19 in. Hg (1022 hPa)
ob: KFEP 051915Z AUTO 16005KT 10SM CLR 12/M01 A3019 RMK AO2 T01201010
cycle: 19

Station Type Date Time Source
KFEP TAF UTC NOAA

Error!

Example: see airport list